createdAt,value
2022-08-05T00:00:18.847Z,97941.77
2022-08-05T00:03:04.629Z,97940.90
2022-08-05T00:06:05.066Z,97938.85
2022-08-05T00:08:34.798Z,97940.52
2022-08-05T00:11:07.503Z,97936.48
2022-08-05T00:13:52.907Z,97940.94
2022-08-05T00:16:35.467Z,97944.50
2022-08-05T00:19:04.753Z,97944.55
2022-08-05T00:21:36.024Z,97945.20
2022-08-05T00:24:10.575Z,97943.91
2022-08-05T00:26:38.899Z,97943.75
2022-08-05T00:29:13.928Z,97942.38
2022-08-05T00:31:53.427Z,97939.39
2022-08-05T00:34:55.129Z,97942.23
2022-08-05T00:37:15.113Z,97938.70
2022-08-05T00:39:44.386Z,97939.30
2022-08-05T00:42:42.013Z,97935.98
2022-08-05T00:45:15.332Z,97933.34
2022-08-05T00:47:57.062Z,97933.16
2022-08-05T00:50:29.597Z,97935.93
2022-08-05T00:52:56.607Z,97934.45
2022-08-05T00:55:33.928Z,97934.73
2022-08-05T00:58:12.157Z,97938.02
2022-08-05T01:00:40.850Z,97931.76
2022-08-05T01:03:10.404Z,97934.92
2022-08-05T01:05:51.211Z,97936.00
2022-08-05T01:08:39.225Z,97938.95
2022-08-05T01:11:38.884Z,97937.55
2022-08-05T01:14:36.629Z,97932.61
2022-08-05T01:17:23.000Z,97930.06
2022-08-05T01:20:02.730Z,97929.38
2022-08-05T01:22:57.184Z,97928.27
2022-08-05T01:25:41.091Z,97929.43
2022-08-05T01:28:26.815Z,97931.75
2022-08-05T01:31:01.328Z,97928.14
2022-08-05T01:33:43.235Z,97932.21
2022-08-05T01:36:21.079Z,97931.49
2022-08-05T01:38:56.385Z,97931.28
2022-08-05T01:41:32.974Z,97931.99
2022-08-05T01:44:01.871Z,97933.80
2022-08-05T01:46:41.910Z,97925.71
2022-08-05T01:49:24.338Z,97926.88
2022-08-05T01:51:58.780Z,97928.88
2022-08-05T01:54:32.655Z,97928.00
2022-08-05T01:58:11.342Z,97931.33
2022-08-05T01:59:54.516Z,97929.87
2022-08-05T02:02:26.134Z,97929.55
2022-08-05T02:05:03.278Z,97929.19
2022-08-05T02:07:32.453Z,97924.55
2022-08-05T02:10:03.368Z,97920.45
2022-08-05T02:12:56.387Z,97925.06
2022-08-05T02:15:41.627Z,97923.33
2022-08-05T02:18:31.687Z,97922.14
2022-08-05T02:21:19.199Z,97919.63
2022-08-05T02:23:54.725Z,97920.19
2022-08-05T02:26:30.511Z,97918.47
2022-08-05T02:28:58.322Z,97917.13
2022-08-05T02:31:34.878Z,97919.57
2022-08-05T02:34:09.900Z,97915.03
2022-08-05T02:36:54.132Z,97914.16
2022-08-05T02:39:26.241Z,97915.52
2022-08-05T02:41:58.242Z,97912.41
2022-08-05T02:44:31.797Z,97909.90
2022-08-05T02:47:00.762Z,97910.58
2022-08-05T02:49:35.983Z,97913.97
2022-08-05T02:52:11.482Z,97910.75
2022-08-05T02:54:41.474Z,97913.61
2022-08-05T02:58:11.377Z,97913.14
2022-08-05T03:00:01.597Z,97912.48
2022-08-05T03:02:36.255Z,97910.02
2022-08-05T03:05:06.301Z,97914.05
2022-08-05T03:08:00.938Z,97912.33
2022-08-05T03:10:24.773Z,97917.08
2022-08-05T03:15:23.738Z,97921.27
2022-08-05T03:17:55.989Z,97920.77
2022-08-05T03:20:24.964Z,97923.02
2022-08-05T03:22:55.207Z,97921.26
2022-08-05T03:25:59.757Z,97923.69
2022-08-05T03:28:14.208Z,97921.56
2022-08-05T03:30:42.617Z,97921.80
2022-08-05T03:33:10.207Z,97921.64
2022-08-05T03:35:40.499Z,97926.91
2022-08-05T03:38:14.329Z,97924.59
2022-08-05T03:40:45.201Z,97923.98
2022-08-05T03:43:58.363Z,97921.30
2022-08-05T03:46:03.777Z,97921.86
2022-08-05T03:48:35.293Z,97922.40
2022-08-05T03:52:36.627Z,97923.56
2022-08-05T03:56:01.099Z,97921.61
2022-08-05T03:57:42.042Z,97921.13
2022-08-05T04:00:15.867Z,97925.39
2022-08-05T04:02:58.446Z,97926.14
2022-08-05T04:05:33.600Z,97925.64
2022-08-05T04:08:05.486Z,97921.28
2022-08-05T04:10:38.172Z,97920.69
2022-08-05T04:13:07.575Z,97919.40
2022-08-05T04:15:36.082Z,97914.80
2022-08-05T04:18:07.225Z,97916.46
2022-08-05T04:20:37.098Z,97911.46
2022-08-05T04:23:04.442Z,97908.60
2022-08-05T04:25:56.693Z,97910.64
2022-08-05T04:28:30.985Z,97911.30
2022-08-05T04:31:01.092Z,97917.58
2022-08-05T04:33:54.561Z,97917.40
2022-08-05T04:36:45.185Z,97921.14
2022-08-05T04:39:03.539Z,97921.55
2022-08-05T04:41:36.664Z,97914.11
2022-08-05T04:44:09.580Z,97911.05
2022-08-05T04:46:38.550Z,97909.23
2022-08-05T04:49:12.400Z,97904.05
2022-08-05T04:51:44.688Z,97901.73
2022-08-05T04:54:13.932Z,97903.85
2022-08-05T04:56:41.251Z,97902.25
2022-08-05T04:59:21.406Z,97902.63
2022-08-05T05:02:07.570Z,97898.48
2022-08-05T05:04:38.539Z,97899.60
2022-08-05T05:07:17.271Z,97898.95
2022-08-05T05:09:45.372Z,97892.83
2022-08-05T05:12:12.243Z,97897.85
2022-08-05T05:14:49.470Z,97892.58
2022-08-05T05:17:23.485Z,97895.15
2022-08-05T05:19:56.407Z,97893.84
2022-08-05T05:22:26.002Z,97889.67
2022-08-05T05:25:00.238Z,97892.13
2022-08-05T05:27:44.415Z,97886.36
2022-08-05T05:30:30.542Z,97886.63
2022-08-05T05:33:08.964Z,97884.22
2022-08-05T05:35:47.908Z,97881.08
2022-08-05T05:38:26.886Z,97877.63
2022-08-05T05:40:57.541Z,97881.08
2022-08-05T05:43:54.483Z,97882.65
2022-08-05T05:46:17.203Z,97884.08
2022-08-05T05:48:47.841Z,97878.58
2022-08-05T05:51:21.276Z,97878.91
2022-08-05T05:53:58.287Z,97882.71
2022-08-05T05:56:33.348Z,97881.32
2022-08-05T05:59:06.525Z,97880.54
2022-08-05T06:01:38.899Z,97877.35
2022-08-05T06:04:14.552Z,97875.61
2022-08-05T06:06:47.788Z,97876.17
2022-08-05T06:09:24.916Z,97879.55
2022-08-05T06:12:03.201Z,97881.89
2022-08-05T06:14:31.923Z,97885.73
2022-08-05T06:17:01.934Z,97886.81
2022-08-05T06:19:56.971Z,97886.06
2022-08-05T06:22:30.601Z,97892.20
2022-08-05T06:25:59.858Z,97885.37
2022-08-05T06:28:11.369Z,97886.88
2022-08-05T06:30:42.129Z,97885.30
2022-08-05T06:33:10.013Z,97887.82
2022-08-05T06:36:06.906Z,97882.15
2022-08-05T06:38:36.399Z,97885.61
2022-08-05T06:41:05.515Z,97886.58
2022-08-05T06:43:58.762Z,97885.05
2022-08-05T06:46:30.076Z,97891.86
2022-08-05T06:49:00.837Z,97888.40
2022-08-05T06:51:31.021Z,97887.30
2022-08-05T06:54:00.299Z,97886.10
2022-08-05T06:56:34.484Z,97888.85
2022-08-05T06:59:09.720Z,97885.82
2022-08-05T07:01:40.744Z,97887.83
2022-08-05T07:04:09.810Z,97889.66
2022-08-05T07:06:37.782Z,97890.36
2022-08-05T07:09:05.142Z,97892.79
2022-08-05T07:11:37.133Z,97887.02
2022-08-05T07:14:29.429Z,97884.19
2022-08-05T07:18:08.749Z,97885.84
2022-08-05T07:22:35.856Z,97882.48
2022-08-05T07:25:23.908Z,97880.39
2022-08-05T07:27:58.318Z,97878.00
2022-08-05T07:30:33.801Z,97874.67
2022-08-05T07:33:08.823Z,97869.42
2022-08-05T07:36:02.809Z,97871.09
2022-08-05T07:38:33.775Z,97872.81
2022-08-05T07:42:07.316Z,97873.64
2022-08-05T07:43:56.899Z,97870.52
2022-08-05T07:46:27.863Z,97875.05
2022-08-05T07:49:02.440Z,97874.76
2022-08-05T07:51:52.804Z,97875.25
2022-08-05T07:54:31.766Z,97873.16
2022-08-05T07:57:22.505Z,97872.14
2022-08-05T07:59:52.334Z,97872.06
2022-08-05T08:02:30.844Z,97869.78
2022-08-05T08:04:58.993Z,97868.04
2022-08-05T08:07:28.397Z,97866.23
2022-08-05T08:09:56.466Z,97867.14
2022-08-05T08:12:35.586Z,97865.12
2022-08-05T08:15:14.042Z,97861.45
2022-08-05T08:17:52.586Z,97863.90
2022-08-05T08:20:45.381Z,97858.90
2022-08-05T08:24:01.652Z,97850.65
2022-08-05T08:26:04.559Z,97845.70
2022-08-05T08:28:36.808Z,97847.39
2022-08-05T08:31:06.364Z,97842.10
2022-08-05T08:33:38.118Z,97840.05
2022-08-05T08:38:56.029Z,97837.62
2022-08-05T08:41:50.713Z,97839.32
2022-08-05T08:45:18.598Z,97836.66
2022-08-05T08:47:21.637Z,97837.44
2022-08-05T08:50:07.896Z,97834.80
2022-08-05T08:52:53.803Z,97831.56
2022-08-05T08:56:02.191Z,97830.65
2022-08-05T08:58:10.641Z,97828.85
2022-08-05T09:00:42.468Z,97827.66
2022-08-05T09:03:11.170Z,97830.56
2022-08-05T09:06:07.844Z,97824.67
2022-08-05T09:08:26.508Z,97824.15
2022-08-05T09:10:54.957Z,97818.73
2022-08-05T09:13:23.515Z,97815.13
2022-08-05T09:15:52.468Z,97809.58
2022-08-05T09:18:22.556Z,97805.92
2022-08-05T09:20:50.833Z,97804.14
2022-08-05T09:23:22.918Z,97804.00
2022-08-05T09:26:09.222Z,97795.73
2022-08-05T09:28:39.743Z,97791.31
2022-08-05T09:31:18.258Z,97786.34
2022-08-05T09:34:09.894Z,97782.45
2022-08-05T09:36:56.002Z,97784.36
2022-08-05T09:39:41.601Z,97779.44
2022-08-05T09:42:22.991Z,97774.45
2022-08-05T09:44:56.580Z,97771.35
2022-08-05T09:47:29.693Z,97772.92
2022-08-05T09:50:18.127Z,97769.82
2022-08-05T09:53:01.197Z,97765.27
2022-08-05T09:55:56.436Z,97758.87
2022-08-05T09:58:23.411Z,97762.91
2022-08-05T10:01:00.848Z,97763.61
2022-08-05T10:03:56.533Z,97758.40
2022-08-05T10:06:19.148Z,97759.46
2022-08-05T10:08:53.738Z,97758.11
2022-08-05T10:11:21.605Z,97755.04
2022-08-05T10:13:54.547Z,97750.48
2022-08-05T10:16:38.017Z,97748.27
2022-08-05T10:19:23.594Z,97744.86
2022-08-05T10:21:59.163Z,97740.06
2022-08-05T10:24:27.368Z,97735.89
2022-08-05T10:26:56.154Z,97733.02
2022-08-05T10:30:41.403Z,97730.60
2022-08-05T10:32:53.218Z,97726.81
2022-08-05T10:35:07.871Z,97725.30
2022-08-05T10:37:40.286Z,97724.13
2022-08-05T10:40:51.561Z,97719.92
2022-08-05T10:43:48.615Z,97717.55
2022-08-05T10:46:18.955Z,97716.85
2022-08-05T10:49:09.993Z,97711.80
2022-08-05T10:51:59.746Z,97708.92
2022-08-05T10:55:02.569Z,97706.27
2022-08-05T10:57:33.643Z,97706.64
2022-08-05T11:00:13.251Z,97702.81
2022-08-05T11:03:25.702Z,97702.21
2022-08-05T11:06:15.714Z,97702.86
2022-08-05T11:09:32.188Z,97703.46
2022-08-05T11:12:43.862Z,97704.88
2022-08-05T11:15:20.027Z,97705.75
2022-08-05T11:17:57.515Z,97707.45
2022-08-05T11:20:47.428Z,97705.91
2022-08-05T11:24:02.562Z,97703.14
2022-08-05T11:26:28.751Z,97704.08
2022-08-05T11:29:12.311Z,97696.81
2022-08-05T11:31:54.266Z,97698.32
2022-08-05T11:34:47.493Z,97693.64
2022-08-05T11:38:29.748Z,97689.92
2022-08-05T11:41:35.084Z,97684.52
2022-08-05T11:44:40.953Z,97677.12
2022-08-05T11:47:19.979Z,97679.71
2022-08-05T11:50:00.121Z,97676.56
2022-08-05T11:52:31.189Z,97676.39
2022-08-05T11:54:59.134Z,97675.09
2022-08-05T11:58:08.096Z,97674.05
2022-08-05T12:00:30.279Z,97674.05
2022-08-05T12:02:57.480Z,97673.75
2022-08-05T12:05:36.368Z,97674.13
2022-08-05T12:08:09.989Z,97673.76
2022-08-05T12:10:45.168Z,97678.45
2022-08-05T12:13:18.638Z,97670.37
2022-08-05T12:15:55.982Z,97665.63
2022-08-05T12:18:38.931Z,97666.92
2022-08-05T12:21:15.381Z,97661.48
2022-08-05T12:24:20.723Z,97663.71
2022-08-05T12:26:53.903Z,97659.83
2022-08-05T12:29:24.754Z,97656.14
2022-08-05T12:32:01.979Z,97653.81
2022-08-05T12:34:36.522Z,97657.08
2022-08-05T12:37:16.260Z,97655.94
2022-08-05T12:39:44.737Z,97645.67
2022-08-05T12:42:17.651Z,97641.71
2022-08-05T12:44:45.866Z,97639.86
2022-08-05T12:47:30.423Z,97638.70
2022-08-05T12:50:04.165Z,97633.30
2022-08-05T12:52:39.139Z,97633.92
2022-08-05T12:55:26.196Z,97633.65
2022-08-05T12:58:51.272Z,97629.73
2022-08-05T13:02:03.769Z,97624.70
2022-08-05T13:03:41.460Z,97619.86
2022-08-05T13:06:16.477Z,97619.27
2022-08-05T13:08:51.724Z,97615.97
2022-08-05T13:12:01.747Z,97615.93
2022-08-05T13:14:24.755Z,97615.03
2022-08-05T13:17:20.467Z,97606.64
2022-08-05T13:19:59.317Z,97612.51
2022-08-05T13:22:27.749Z,97604.72
2022-08-05T13:25:00.961Z,97606.05
2022-08-05T13:27:42.961Z,97606.16
2022-08-05T13:30:33.956Z,97613.63
2022-08-05T13:33:01.400Z,97609.75
2022-08-05T13:35:42.391Z,97605.23
2022-08-05T13:38:28.260Z,97604.35
2022-08-05T13:40:59.912Z,97601.93
2022-08-05T13:43:44.434Z,97606.25
2022-08-05T13:46:16.632Z,97606.19
2022-08-05T13:49:03.790Z,97602.42
2022-08-05T13:51:40.236Z,97595.22
2022-08-05T13:54:13.254Z,97594.67
2022-08-05T13:56:45.434Z,97590.60
2022-08-05T13:59:24.591Z,97587.46
2022-08-05T14:01:57.360Z,97584.84
2022-08-05T14:04:50.556Z,97585.55
2022-08-05T14:08:00.881Z,97577.88
2022-08-05T14:10:34.289Z,97574.03
2022-08-05T14:13:02.463Z,97574.83
2022-08-05T14:16:04.846Z,97573.94
2022-08-05T14:18:23.473Z,97571.41
2022-08-05T14:20:52.909Z,97570.70
2022-08-05T14:23:25.924Z,97566.05
2022-08-05T14:25:58.868Z,97566.84
2022-08-05T14:28:29.078Z,97566.58
2022-08-05T14:30:57.936Z,97561.52
2022-08-05T14:33:25.163Z,97561.73
2022-08-05T14:35:54.481Z,97564.26
2022-08-05T14:38:32.146Z,97564.52
2022-08-05T14:41:06.788Z,97560.02
2022-08-05T14:43:57.541Z,97557.70
2022-08-05T14:46:29.646Z,97553.34
2022-08-05T14:49:06.734Z,97554.07
2022-08-05T14:51:42.959Z,97549.42
2022-08-05T14:54:27.824Z,97553.17
2022-08-05T14:56:58.276Z,97550.52
2022-08-05T14:59:29.585Z,97549.22
2022-08-05T15:02:15.118Z,97543.41
2022-08-05T15:04:44.934Z,97543.71
2022-08-05T15:08:05.825Z,97539.55
2022-08-05T15:10:03.210Z,97537.09
2022-08-05T15:12:45.782Z,97530.83
2022-08-05T15:15:55.454Z,97529.20
2022-08-05T15:18:06.313Z,97522.55
2022-08-05T15:20:33.394Z,97521.83
2022-08-05T15:23:06.380Z,97521.15
2022-08-05T15:25:40.936Z,97516.16
2022-08-05T15:28:18.724Z,97513.88
2022-08-05T15:30:46.482Z,97511.92
2022-08-05T15:33:56.821Z,97512.69
2022-08-05T15:36:04.707Z,97512.23
2022-08-05T15:38:40.797Z,97509.07
2022-08-05T15:41:20.860Z,97512.27
2022-08-05T15:43:52.232Z,97513.17
2022-08-05T15:46:24.161Z,97512.35
2022-08-05T15:48:58.839Z,97516.21
2022-08-05T15:52:13.444Z,97515.65
2022-08-05T15:54:16.917Z,97519.05
2022-08-05T15:56:43.817Z,97513.10
2022-08-05T15:59:21.593Z,97505.85
2022-08-05T16:01:52.257Z,97506.17
2022-08-05T16:04:25.690Z,97506.40
2022-08-05T16:06:55.996Z,97507.95
2022-08-05T16:09:24.510Z,97509.64
2022-08-05T16:11:53.745Z,97507.70
2022-08-05T16:14:22.584Z,97509.42
2022-08-05T16:16:49.953Z,97513.39
2022-08-05T16:19:25.660Z,97512.20
2022-08-05T16:22:05.546Z,97507.77
2022-08-05T16:24:41.419Z,97511.45
2022-08-05T16:27:19.098Z,97506.60
2022-08-05T16:29:59.358Z,97506.63
2022-08-05T16:32:29.502Z,97506.31
2022-08-05T16:34:57.553Z,97507.38
2022-08-05T16:38:02.784Z,97510.05
2022-08-05T16:40:28.594Z,97509.38
2022-08-05T16:42:56.789Z,97515.72
2022-08-05T16:46:03.519Z,97512.64
2022-08-05T16:48:10.854Z,97511.36
2022-08-05T16:50:53.582Z,97509.09
2022-08-05T16:53:32.079Z,97507.80
2022-08-05T16:55:59.954Z,97506.36
2022-08-05T16:58:27.003Z,97511.53
2022-08-05T17:00:54.198Z,97511.36
2022-08-05T17:03:22.328Z,97510.94
2022-08-05T17:05:53.971Z,97512.19
2022-08-05T17:08:35.841Z,97516.73
2022-08-05T17:11:04.060Z,97516.73
2022-08-05T17:13:37.235Z,97518.45
2022-08-05T17:16:28.001Z,97525.52
2022-08-05T17:18:53.165Z,97523.77
2022-08-05T17:21:21.348Z,97528.80
2022-08-05T17:24:05.103Z,97533.33
2022-08-05T17:26:38.678Z,97535.44
2022-08-05T17:29:09.810Z,97536.31
2022-08-05T17:31:41.249Z,97539.75
2022-08-05T17:34:29.549Z,97541.13
2022-08-05T17:37:00.341Z,97539.44
2022-08-05T17:39:33.999Z,97540.33
2022-08-05T17:42:17.324Z,97538.91
2022-08-05T17:44:50.798Z,97544.84
2022-08-05T17:47:22.130Z,97545.52
2022-08-05T17:50:00.372Z,97539.31
2022-08-05T17:52:33.059Z,97540.45
2022-08-05T17:55:00.877Z,97547.58
2022-08-05T17:57:30.250Z,97547.13
2022-08-05T18:00:03.772Z,97545.60
2022-08-05T18:02:34.355Z,97551.80
2022-08-05T18:05:07.645Z,97554.95
2022-08-05T18:07:41.748Z,97557.35
2022-08-05T18:10:20.348Z,97557.83
2022-08-05T18:12:49.055Z,97565.58
2022-08-05T18:15:16.094Z,97568.08
2022-08-05T18:18:00.524Z,97571.98
2022-08-05T18:20:31.651Z,97578.09
2022-08-05T18:23:05.977Z,97579.86
2022-08-05T18:25:45.548Z,97582.73
2022-08-05T18:28:17.279Z,97580.86
2022-08-05T18:30:49.999Z,97577.58
2022-08-05T18:33:23.157Z,97581.84
2022-08-05T18:36:03.283Z,97580.42
2022-08-05T18:38:31.213Z,97586.86
2022-08-05T18:41:57.572Z,97592.28
2022-08-05T18:43:48.581Z,97596.46
2022-08-05T18:46:19.756Z,97597.60
2022-08-05T18:48:51.598Z,97594.80
2022-08-05T18:52:05.715Z,97595.39
2022-08-05T18:54:31.359Z,97598.80
2022-08-05T18:57:01.311Z,97605.14
2022-08-05T18:59:43.409Z,97608.86
2022-08-05T19:02:28.323Z,97617.52
2022-08-05T19:05:02.459Z,97617.23
2022-08-05T19:07:49.222Z,97621.42
2022-08-05T19:10:26.506Z,97625.27
2022-08-05T19:12:56.909Z,97632.53
2022-08-05T19:15:57.909Z,97637.80
2022-08-05T19:18:21.812Z,97639.29
2022-08-05T19:20:53.933Z,97639.59
2022-08-05T19:24:04.325Z,97643.02
2022-08-05T19:26:08.449Z,97643.10
2022-08-05T19:28:41.664Z,97642.81
2022-08-05T19:31:13.186Z,97638.41
2022-08-05T19:33:48.159Z,97639.98
2022-08-05T19:36:27.193Z,97637.20
2022-08-05T19:38:58.846Z,97634.45
2022-08-05T19:42:05.823Z,97635.30
2022-08-05T19:44:18.592Z,97631.58
2022-08-05T19:46:46.460Z,97634.35
2022-08-05T19:49:16.798Z,97632.55
2022-08-05T19:52:09.179Z,97630.90
2022-08-05T19:54:34.666Z,97631.60
2022-08-05T19:57:06.255Z,97631.80
2022-08-05T19:59:55.752Z,97636.16
2022-08-05T20:02:23.779Z,97637.55
2022-08-05T20:04:54.889Z,97633.13
2022-08-05T20:07:47.386Z,97638.20
2022-08-05T20:10:13.374Z,97638.59
2022-08-05T20:12:47.929Z,97639.85
2022-08-05T20:15:23.066Z,97636.87
2022-08-05T20:18:10.671Z,97639.48
2022-08-05T20:20:56.266Z,97641.98
2022-08-05T20:23:39.506Z,97639.22
2022-08-05T20:26:15.910Z,97637.80
2022-08-05T20:28:49.843Z,97633.38
2022-08-05T20:31:21.727Z,97635.27
2022-08-05T20:33:51.698Z,97639.45
2022-08-05T20:36:21.307Z,97641.05
2022-08-05T20:38:53.739Z,97643.41
2022-08-05T20:41:44.390Z,97640.05
2022-08-05T20:44:18.962Z,97642.50
2022-08-05T20:47:04.391Z,97640.27
2022-08-05T20:49:33.269Z,97638.66
2022-08-05T20:52:08.431Z,97638.31
2022-08-05T20:54:43.398Z,97641.92
2022-08-05T20:57:42.131Z,97639.83
2022-08-05T21:00:40.099Z,97639.77
2022-08-05T21:03:04.406Z,97639.85
2022-08-05T21:05:48.362Z,97639.15
2022-08-05T21:08:41.564Z,97639.05
2022-08-05T21:11:15.082Z,97641.98
2022-08-05T21:13:55.770Z,97642.33
2022-08-05T21:16:29.135Z,97640.88
2022-08-05T21:19:01.898Z,97641.23
2022-08-05T21:21:39.106Z,97637.27
2022-08-05T21:24:12.783Z,97641.11
2022-08-05T21:26:41.430Z,97642.97
2022-08-05T21:29:12.440Z,97645.98
2022-08-05T21:31:41.123Z,97646.94
2022-08-05T21:34:10.522Z,97645.29
2022-08-05T21:36:39.253Z,97646.51
2022-08-05T21:39:14.295Z,97650.72
2022-08-05T21:41:52.697Z,97650.27
2022-08-05T21:44:28.357Z,97649.79
2022-08-05T21:46:55.753Z,97649.37
2022-08-05T21:49:48.095Z,97648.48
2022-08-05T21:52:16.118Z,97651.23
2022-08-05T21:54:51.122Z,97650.95
2022-08-05T21:57:34.299Z,97647.98
2022-08-05T22:00:05.481Z,97646.02
2022-08-05T22:02:41.634Z,97645.34
2022-08-05T22:05:11.486Z,97647.04
2022-08-05T22:07:59.380Z,97650.91
2022-08-05T22:10:27.788Z,97649.08
2022-08-05T22:12:58.811Z,97649.83
2022-08-05T22:16:01.240Z,97654.48
2022-08-05T22:18:14.645Z,97655.33
2022-08-05T22:20:42.879Z,97657.41
2022-08-05T22:24:03.227Z,97652.83
2022-08-05T22:26:35.316Z,97648.83
2022-08-05T22:29:03.883Z,97648.27
2022-08-05T22:31:31.060Z,97648.05
2022-08-05T22:34:12.863Z,97650.84
2022-08-05T22:36:48.135Z,97654.91
2022-08-05T22:39:19.427Z,97650.98
2022-08-05T22:42:10.633Z,97644.84
2022-08-05T22:44:35.442Z,97645.64
2022-08-05T22:47:06.006Z,97643.17
2022-08-05T22:50:20.000Z,97635.09
2022-08-05T22:52:32.433Z,97645.17
2022-08-05T22:55:04.323Z,97645.59
2022-08-05T22:57:45.571Z,97645.35
2022-08-05T23:00:18.470Z,97648.09
2022-08-05T23:02:49.786Z,97648.45
2022-08-05T23:05:18.637Z,97651.36
2022-08-05T23:07:50.366Z,97654.70
2022-08-05T23:10:20.952Z,97654.84
2022-08-05T23:12:55.031Z,97649.69
2022-08-05T23:15:29.967Z,97650.40
2022-08-05T23:18:06.083Z,97643.15
2022-08-05T23:20:39.107Z,97645.68
2022-08-05T23:23:09.612Z,97646.23
2022-08-05T23:25:50.923Z,97646.95
2022-08-05T23:28:29.005Z,97647.61
2022-08-05T23:31:16.266Z,97645.98
2022-08-05T23:34:03.856Z,97640.63
2022-08-05T23:36:38.803Z,97638.79
2022-08-05T23:39:08.746Z,97638.77
2022-08-05T23:41:40.922Z,97639.21
2022-08-05T23:44:08.702Z,97639.84
2022-08-05T23:46:37.445Z,97641.46
2022-08-05T23:49:17.073Z,97636.73
2022-08-05T23:52:08.079Z,97636.88
2022-08-05T23:54:38.412Z,97637.70
2022-08-05T23:57:07.607Z,97639.45
